Time;durP1;ratioP1;P1;durP2;ratioP2;P2;SDS_P1;SDS_P2;PMS_P1;PMS_P2;Temp;Humidity;BMP_temperature;BMP_pressure;BME280_temperature;BME280_humidity;BME280_pressure;Samples;Min_cycle;Max_cycle;Signal;HPM_P1;HPM_P2
2021/08/28 00:00:50;;;;;;;1.93;1.63;;;;;;;14.21;67.39;99266.88;4905247;29;20242;-83
2021/08/28 00:03:21;;;;;;;1.77;1.67;;;;;;;14.13;67.99;99257.38;4890489;29;20255;-86
2021/08/28 00:05:49;;;;;;;2.23;1.80;;;;;;;14.19;68.12;99263.59;4905539;29;20757;-82
2021/08/28 00:08:16;;;;;;;1.90;1.57;;;;;;;14.27;68.27;99265.88;4917115;29;20595;-84
2021/08/28 00:10:43;;;;;;;1.60;1.50;;;;;;;14.30;68.20;99278.84;4886428;29;20290;-82
2021/08/28 00:13:10;;;;;;;2.13;1.50;;;;;;;14.21;68.69;99270.38;4886349;29;20318;-85
2021/08/28 00:15:37;;;;;;;1.80;1.70;;;;;;;14.27;68.36;99266.69;4901893;29;20235;-83
2021/08/28 00:18:05;;;;;;;1.50;1.40;;;;;;;14.27;68.23;99261.31;4901198;29;20234;-83
2021/08/28 00:20:33;;;;;;;1.83;1.67;;;;;;;14.36;68.12;99276.00;4901633;29;20287;-84
2021/08/28 00:23:04;;;;;;;1.40;1.30;;;;;;;14.36;67.15;99270.59;4886316;29;20639;-84
2021/08/28 00:25:32;;;;;;;1.67;1.20;;;;;;;14.52;66.50;99279.66;4901593;29;20243;-84
2021/08/28 00:27:59;;;;;;;1.60;1.20;;;;;;;14.52;66.22;99272.38;4901776;29;20308;-81
2021/08/28 00:30:25;;;;;;;1.30;1.20;;;;;;;14.64;65.64;99277.63;4887370;29;20283;-86
2021/08/28 00:32:52;;;;;;;1.47;1.37;;;;;;;14.57;65.50;99266.22;4901373;29;20298;-82
2021/08/28 00:35:19;;;;;;;1.63;1.53;;;;;;;14.56;65.62;99255.72;4885960;29;20306;-83
2021/08/28 00:37:46;;;;;;;1.50;1.40;;;;;;;14.59;65.59;99257.88;4901068;29;20284;-82
2021/08/28 00:40:13;;;;;;;1.40;1.23;;;;;;;14.68;65.62;99277.94;4900646;29;20286;-86
2021/08/28 00:42:53;;;;;;;1.57;1.37;;;;;;;14.76;65.51;99286.38;4897351;29;20319;-80
2021/08/28 00:45:43;;;;;;;1.53;1.40;;;;;;;14.73;65.73;99281.50;4886227;29;20237;-83
2021/08/28 00:48:12;;;;;;;2.37;1.40;;;;;;;14.76;65.60;99275.59;4885529;29;20225;-84
2021/08/28 00:50:41;;;;;;;1.83;1.20;;;;;;;14.73;65.48;99262.63;4885637;29;20255;-81
2021/08/28 00:53:09;;;;;;;2.43;1.13;;;;;;;14.83;65.47;99281.59;4885335;29;20245;-81
2021/08/28 00:55:38;;;;;;;1.33;1.23;;;;;;;14.83;65.07;99270.81;4885772;29;20641;-81
2021/08/28 00:58:05;;;;;;;1.50;1.40;;;;;;;14.86;65.02;99274.88;4884920;29;20233;-86
2021/08/28 01:00:42;;;;;;;1.63;1.50;;;;;;;14.86;65.19;99277.56;4885648;29;20581;-83
2021/08/28 01:03:09;;;;;;;2.00;1.30;;;;;;;14.84;64.55;99260.81;4885394;29;20666;-85
2021/08/28 01:06:02;;;;;;;2.90;1.50;;;;;;;14.85;64.22;99260.56;4885479;29;20574;-85
2021/08/28 01:08:52;;;;;;;1.77;1.13;;;;;;;14.85;64.68;99251.66;4887228;29;20229;-81
2021/08/28 01:11:49;;;;;;;1.80;1.70;;;;;;;14.90;65.10;99259.78;4901042;29;20236;-80
2021/08/28 01:14:19;;;;;;;1.23;1.23;;;;;;;14.85;65.11;99246.25;4885054;29;20318;-81
2021/08/28 01:16:52;;;;;;;1.97;1.20;;;;;;;14.91;64.60;99251.44;4885188;29;20289;-82
2021/08/28 01:19:35;;;;;;;1.30;1.20;;;;;;;14.91;64.83;99254.16;4885286;29;20585;-84
2021/08/28 01:22:11;;;;;;;2.03;1.30;;;;;;;14.90;64.85;99246.31;4885238;29;20538;-86
2021/08/28 01:25:06;;;;;;;1.40;1.30;;;;;;;14.90;64.50;99246.31;4886881;29;20239;-86
2021/08/28 01:28:15;;;;;;;1.20;1.10;;;;;;;14.93;64.50;99252.00;4888076;29;20282;-81
2021/08/28 01:30:43;;;;;;;1.97;1.37;;;;;;;14.89;64.62;99253.59;4884591;29;20237;-83
2021/08/28 01:33:11;;;;;;;1.63;1.40;;;;;;;14.94;64.66;99253.63;4869623;29;20247;-84
2021/08/28 01:35:42;;;;;;;1.40;1.30;;;;;;;14.87;64.46;99236.84;4885244;29;20232;-81
2021/08/28 01:38:13;;;;;;;1.53;1.30;;;;;;;14.87;64.67;99244.13;4884819;29;20243;-83
2021/08/28 01:40:48;;;;;;;1.50;1.20;;;;;;;14.83;64.98;99249.22;4886971;29;20240;-81
2021/08/28 01:43:16;;;;;;;2.33;1.43;;;;;;;14.81;65.40;99239.75;4884628;29;20287;-82
2021/08/28 01:45:42;;;;;;;3.03;1.67;;;;;;;14.83;65.61;99253.81;4869238;29;20236;-82
2021/08/28 01:48:13;;;;;;;3.03;1.60;;;;;;;14.78;66.55;99256.47;4869265;29;20237;-85
2021/08/28 01:50:42;;;;;;;2.60;1.30;;;;;;;14.75;67.23;99243.47;4868916;29;20328;-84
2021/08/28 01:53:20;;;;;;;1.83;1.27;;;;;;;14.68;68.62;99243.69;4887341;29;20782;-82
2021/08/28 01:55:47;;;;;;;3.10;1.67;;;;;;;14.65;68.54;99241.50;4884556;29;20236;-81
2021/08/28 01:58:14;;;;;;;2.10;1.93;;;;;;;14.62;68.50;99238.50;4868632;29;20236;-81
2021/08/28 02:00:58;;;;;;;2.77;1.77;;;;;;;14.51;69.18;99237.59;4886708;29;20235;-80
2021/08/28 02:03:34;;;;;;;2.07;1.60;;;;;;;14.53;69.17;99240.84;4885379;29;20232;-83
2021/08/28 02:06:04;;;;;;;2.20;2.00;;;;;;;14.66;68.94;99261.19;4884448;29;20239;-85
2021/08/28 02:08:42;;;;;;;2.07;1.87;;;;;;;14.58;69.22;99245.47;4885964;29;20232;-83
2021/08/28 02:11:14;;;;;;;2.33;2.00;;;;;;;14.59;69.53;99257.88;4900032;29;20268;-84
2021/08/28 02:13:46;;;;;;;2.20;2.00;;;;;;;14.57;69.82;99265.41;4868991;29;20238;-82
2021/08/28 02:16:17;;;;;;;2.20;2.00;;;;;;;14.51;70.23;99248.38;4884283;29;20261;-80
2021/08/28 02:18:52;;;;;;;2.50;2.20;;;;;;;14.51;70.60;99259.97;4884111;29;20279;-85
2021/08/28 02:21:49;;;;;;;2.60;1.90;;;;;;;14.48;70.43;99246.19;4899310;29;20239;-81
2021/08/28 02:24:22;;;;;;;2.30;2.10;;;;;;;14.44;70.35;99242.38;4869289;29;20236;-83
2021/08/28 02:26:55;;;;;;;3.23;2.40;;;;;;;14.44;70.81;99247.75;4884304;29;20228;-85
2021/08/28 02:29:29;;;;;;;3.50;2.50;;;;;;;14.46;70.87;99256.41;4884050;29;20315;-85
2021/08/28 02:31:59;;;;;;;2.13;1.93;;;;;;;14.45;71.10;99249.41;4884183;29;20231;-84
2021/08/28 02:34:33;;;;;;;5.30;2.47;;;;;;;14.38;70.78;99243.38;4884336;29;20310;-80
2021/08/28 02:37:01;;;;;;;2.67;2.47;;;;;;;14.40;71.03;99249.34;4883888;29;20228;-80
2021/08/28 02:39:29;;;;;;;4.57;2.47;;;;;;;14.31;71.55;99240.03;4883586;29;20262;-83
2021/08/28 02:41:57;;;;;;;3.10;2.80;;;;;;;14.35;72.07;99250.06;4883682;29;20243;-81
2021/08/28 02:44:25;;;;;;;2.50;2.30;;;;;;;14.31;72.04;99243.56;4883424;29;20234;-83
2021/08/28 02:46:53;;;;;;;2.50;2.30;;;;;;;14.32;71.88;99253.28;4899417;29;20229;-86
2021/08/28 02:49:21;;;;;;;2.33;1.80;;;;;;;14.33;72.04;99251.38;4868144;29;20235;-81
2021/08/28 02:51:49;;;;;;;2.60;2.40;;;;;;;14.28;72.29;99251.31;4883863;29;20239;-83
2021/08/28 02:54:21;;;;;;;3.77;2.10;;;;;;;14.23;72.31;99245.88;4869350;29;20241;-81
2021/08/28 02:56:51;;;;;;;3.57;2.20;;;;;;;14.09;72.65;99237.38;4883904;29;20231;-82
2021/08/28 02:59:19;;;;;;;2.10;2.00;;;;;;;14.10;72.79;99249.75;4898909;29;20247;-85
2021/08/28 03:01:46;;;;;;;3.17;2.33;;;;;;;13.90;72.71;99231.50;4883592;29;20239;-81
2021/08/28 03:04:18;;;;;;;2.30;2.10;;;;;;;13.90;72.90;99252.22;4883364;29;20329;-85
2021/08/28 03:06:47;;;;;;;2.67;2.47;;;;;;;13.82;72.84;99247.25;4883934;29;20644;-85
2021/08/28 03:09:19;;;;;;;2.97;2.40;;;;;;;13.82;73.28;99258.84;4883585;29;20590;-84
2021/08/28 03:11:47;;;;;;;2.40;2.20;;;;;;;13.73;73.25;99246.88;4898866;29;20239;-81
2021/08/28 03:14:15;;;;;;;2.47;2.20;;;;;;;13.74;73.28;99245.00;4882484;29;20263;-80
2021/08/28 03:16:45;;;;;;;2.37;2.17;;;;;;;13.67;73.71;99253.25;4899708;29;20539;-81
2021/08/28 03:19:31;;;;;;;2.40;2.20;;;;;;;13.60;73.76;99241.84;4900473;29;20231;-83
2021/08/28 03:22:02;;;;;;;2.53;2.33;;;;;;;13.59;73.76;99246.41;4887144;29;20250;-80
2021/08/28 03:24:31;;;;;;;2.50;2.30;;;;;;;13.57;74.36;99242.38;4863569;29;20239;-80
2021/08/28 03:27:21;;;;;;;3.33;2.30;;;;;;;13.56;74.39;99243.41;4906250;29;20235;-84
2021/08/28 03:29:55;;;;;;;3.17;2.00;;;;;;;13.52;74.50;99235.03;4907220;29;20651;-80
2021/08/28 03:32:22;;;;;;;2.63;2.30;;;;;;;13.45;74.42;99231.69;4925080;29;20229;-80
2021/08/28 03:34:56;;;;;;;2.73;2.17;;;;;;;13.40;74.83;99226.22;4896471;29;20260;-80
2021/08/28 03:37:24;;;;;;;3.20;2.33;;;;;;;13.39;75.08;99227.28;4925971;29;20698;-80
2021/08/28 03:39:53;;;;;;;2.30;2.10;;;;;;;13.38;75.42;99227.56;4926671;29;20274;-79
2021/08/28 03:42:23;;;;;;;3.07;2.47;;;;;;;13.37;75.11;99228.63;4927125;29;20214;-80
2021/08/28 03:45:04;;;;;;;2.63;2.43;;;;;;;13.35;75.54;99228.03;4922422;29;20241;-80
2021/08/28 03:47:43;;;;;;;2.13;2.03;;;;;;;13.34;75.47;99221.03;4928431;29;20245;-80
2021/08/28 03:50:14;;;;;;;2.60;2.30;;;;;;;13.32;75.33;99229.34;4943720;29;20227;-79
2021/08/28 03:52:55;;;;;;;2.50;2.30;;;;;;;13.24;75.41;99219.03;4929033;29;20282;-82
2021/08/28 03:55:23;;;;;;;3.43;2.23;;;;;;;13.26;75.09;99224.13;4928811;29;20218;-82
2021/08/28 03:57:50;;;;;;;2.63;2.30;;;;;;;13.21;75.14;99220.31;4927941;29;20294;-82
2021/08/28 04:00:28;;;;;;;2.47;2.27;;;;;;;13.19;75.18;99224.31;4943433;29;20289;-82
2021/08/28 04:03:06;;;;;;;3.00;2.50;;;;;;;13.17;75.27;99221.88;4926025;29;20237;-82
2021/08/28 04:05:37;;;;;;;4.57;2.40;;;;;;;13.18;75.38;99214.63;4935925;23;20699;-82
2021/08/28 04:08:09;;;;;;;2.67;2.47;;;;;;;13.26;75.46;99219.56;4944694;29;20225;-81
2021/08/28 04:10:55;;;;;;;2.97;2.20;;;;;;;13.34;75.13;99223.75;4932653;23;20227;-80
2021/08/28 04:13:27;;;;;;;2.63;2.20;;;;;;;13.30;74.84;99209.94;4910927;29;20190;-82
2021/08/28 04:15:56;;;;;;;3.43;2.40;;;;;;;13.43;73.77;99222.25;4998477;23;20207;-82
2021/08/28 04:18:32;;;;;;;2.23;2.03;;;;;;;13.48;73.15;99225.84;4933015;29;20328;-81
2021/08/28 04:21:22;;;;;;;2.17;2.07;;;;;;;13.61;73.04;99219.28;4918331;29;20238;-81
2021/08/28 04:23:53;;;;;;;2.53;2.10;;;;;;;13.73;72.47;99224.53;4915381;29;20225;-82
2021/08/28 04:26:54;;;;;;;2.80;2.00;;;;;;;13.74;72.22;99221.59;4898093;29;20239;-81
2021/08/28 04:29:27;;;;;;;3.97;2.30;;;;;;;13.83;71.76;99216.56;4931712;29;20230;-82
2021/08/28 04:31:54;;;;;;;3.33;2.30;;;;;;;13.82;71.96;99215.75;4915788;29;20293;-81
2021/08/28 04:34:22;;;;;;;4.17;2.67;;;;;;;13.92;72.11;99223.16;4943272;29;20231;-82
2021/08/28 04:36:49;;;;;;;2.30;2.10;;;;;;;14.06;71.80;99232.47;4926454;29;20547;-81
2021/08/28 04:39:16;;;;;;;58.33;33.27;;;;;;;14.15;71.05;99230.97;4907580;29;20230;-79
2021/08/28 04:41:52;;;;;;;26.90;17.80;;;;;;;14.24;70.84;99232.16;4892897;29;20238;-83
2021/08/28 04:44:18;;;;;;;6.77;4.50;;;;;;;14.35;69.70;99233.06;4904894;29;20709;-85
2021/08/28 04:46:47;;;;;;;4.70;3.60;;;;;;;14.56;69.65;99245.72;4922120;29;20284;-82
2021/08/28 04:49:15;;;;;;;3.83;3.00;;;;;;;14.68;68.98;99237.47;4920188;29;20314;-84
2021/08/28 04:52:14;;;;;;;2.20;2.00;;;;;;;14.82;68.47;99238.69;4905936;29;20289;-82
2021/08/28 04:54:41;;;;;;;1.77;1.60;;;;;;;14.84;67.82;99250.03;4889062;29;20258;-81
2021/08/28 04:57:08;;;;;;;3.73;1.87;;;;;;;14.96;67.32;99256.91;4904150;29;20232;-82
2021/08/28 04:59:35;;;;;;;2.20;1.83;;;;;;;15.03;67.45;99264.75;4904414;29;20236;-84
2021/08/28 05:02:38;;;;;;;2.27;1.83;;;;;;;15.09;67.38;99254.81;4894932;29;20539;-84
2021/08/28 05:05:09;;;;;;;1.93;1.83;;;;;;;15.14;66.92;99253.00;4904619;29;20239;-81
2021/08/28 05:07:36;;;;;;;2.73;1.77;;;;;;;15.24;66.64;99253.06;4904012;29;20314;-81
2021/08/28 05:10:03;;;;;;;2.07;1.87;;;;;;;15.39;66.32;99263.16;4888638;29;20286;-84
2021/08/28 05:12:32;;;;;;;2.50;2.00;;;;;;;15.49;66.32;99271.31;4904108;29;20306;-80
2021/08/28 05:15:08;;;;;;;2.27;1.80;;;;;;;15.52;66.17;99273.53;4890964;29;20230;-83
2021/08/28 05:17:44;;;;;;;1.67;1.57;;;;;;;15.55;65.57;99266.78;4919635;29;20285;-86
2021/08/28 05:20:12;;;;;;;1.70;1.60;;;;;;;15.61;65.07;99271.16;4903520;29;20233;-85
2021/08/28 05:23:00;;;;;;;2.10;1.80;;;;;;;15.68;64.93;99277.13;4919913;29;20392;-82
2021/08/28 05:25:35;;;;;;;3.53;2.07;;;;;;;15.69;65.05;99278.75;4905244;29;20244;-81
2021/08/28 05:28:02;;;;;;;2.30;1.80;;;;;;;15.63;64.87;99261.72;4903681;29;20274;-86
2021/08/28 05:30:34;;;;;;;1.77;1.67;;;;;;;15.64;64.80;99257.13;4904337;29;20239;-81
2021/08/28 05:33:00;;;;;;;1.83;1.73;;;;;;;15.66;65.35;99266.59;4919335;29;20716;-87
2021/08/28 05:35:27;;;;;;;1.97;1.80;;;;;;;15.72;64.91;99267.47;4903719;29;20298;-83
2021/08/28 05:38:14;;;;;;;2.73;1.70;;;;;;;15.81;64.57;99261.28;4919075;29;20638;-84
2021/08/28 05:40:42;;;;;;;1.97;1.60;;;;;;;15.88;64.22;99269.16;4919208;29;20237;-85
2021/08/28 05:43:08;;;;;;;1.60;1.50;;;;;;;15.95;63.44;99266.22;4904058;29;20656;-84
2021/08/28 05:46:02;;;;;;;1.67;1.57;;;;;;;16.10;63.72;99277.06;4891792;29;20235;-81
2021/08/28 05:48:38;;;;;;;2.40;1.70;;;;;;;16.12;63.65;99264.94;4919408;29;20237;-87
2021/08/28 05:51:13;;;;;;;2.83;1.50;;;;;;;16.14;63.46;99267.38;4904873;29;20241;-87
2021/08/28 05:53:40;;;;;;;1.60;1.50;;;;;;;16.24;62.94;99267.41;4888022;29;20233;-87
2021/08/28 05:56:08;;;;;;;1.87;1.40;;;;;;;16.23;62.68;99261.22;4903078;29;20741;-82
2021/08/28 05:58:36;;;;;;;2.30;1.80;;;;;;;16.28;62.35;99263.91;4887792;29;20234;-84
2021/08/28 06:01:03;;;;;;;1.87;1.30;;;;;;;16.37;62.36;99268.81;4918877;29;20252;-82
2021/08/28 06:03:30;;;;;;;1.67;1.40;;;;;;;16.29;62.35;99253.91;4919082;29;20243;-85
2021/08/28 06:06:04;;;;;;;1.40;1.30;;;;;;;16.40;62.07;99255.56;4888931;29;20649;-85
2021/08/28 06:08:51;;;;;;;3.47;1.57;;;;;;;16.48;61.78;99256.94;4905788;29;20243;-82
2021/08/28 06:11:36;;;;;;;2.20;1.50;;;;;;;16.69;61.86;99269.47;4919578;29;20321;-89
2021/08/28 06:14:23;;;;;;;2.27;1.30;;;;;;;16.74;61.79;99261.34;4889274;29;20624;-87
2021/08/28 06:16:55;;;;;;;3.47;2.00;;;;;;;16.86;61.68;99267.31;4898109;29;20240;-87
2021/08/28 06:19:24;;;;;;;1.83;1.60;;;;;;;17.05;61.06;99264.88;4884119;29;20226;-88
2021/08/28 06:21:51;;;;;;;1.40;1.30;;;;;;;17.15;60.43;99254.06;4884418;29;20231;-88
2021/08/28 06:24:20;;;;;;;2.43;1.30;;;;;;;17.28;59.37;99256.22;4901393;29;20244;-85
2021/08/28 06:27:05;;;;;;;1.27;1.17;;;;;;;17.44;59.06;99260.56;4917790;29;20645;-87
2021/08/28 06:29:32;;;;;;;2.27;1.40;;;;;;;17.64;58.32;99246.16;4917802;29;20226;-86
2021/08/28 06:32:00;;;;;;;1.90;1.30;;;;;;;17.87;57.81;99250.19;4887658;29;20240;-84
2021/08/28 06:34:27;;;;;;;3.20;1.30;;;;;;;18.06;57.13;99253.09;4902180;29;20230;-87
2021/08/28 06:36:53;;;;;;;1.37;1.27;;;;;;;18.20;56.88;99251.38;4870739;29;20234;-85
2021/08/28 06:39:43;;;;;;;1.50;1.40;;;;;;;18.48;56.38;99250.69;4887440;29;20234;-84
2021/08/28 06:42:33;;;;;;;1.40;1.30;;;;;;;18.71;55.64;99246.53;4899832;29;20242;-85
2021/08/28 06:45:19;;;;;;;1.20;1.10;;;;;;;19.09;54.41;99245.69;4918179;29;20542;-85
2021/08/28 06:48:07;;;;;;;2.20;1.20;;;;;;;19.37;53.44;99246.78;4892134;29;20277;-86
2021/08/28 06:50:53;;;;;;;1.70;1.20;;;;;;;19.73;52.54;99256.28;4905146;29;20558;-84
2021/08/28 06:53:38;;;;;;;2.10;1.43;;;;;;;20.27;51.32;99256.97;4917799;29;20241;-85
2021/08/28 06:56:31;;;;;;;1.50;1.10;;;;;;;20.48;49.58;99242.03;4871709;29;20234;-84
2021/08/28 06:59:16;;;;;;;1.37;1.13;;;;;;;20.82;49.02;99256.22;4890497;29;20236;-84
2021/08/28 07:01:51;;;;;;;1.40;1.30;;;;;;;20.95;48.84;99262.84;4889981;29;20230;-86
2021/08/28 07:04:37;;;;;;;2.73;1.20;;;;;;;21.02;48.43;99252.38;4903450;29;20664;-83
2021/08/28 07:07:18;;;;;;;1.30;1.10;;;;;;;21.18;47.89;99251.06;4903508;29;20241;-83
2021/08/28 07:09:48;;;;;;;1.93;1.30;;;;;;;21.13;48.54;99261.19;4899548;29;20659;-82
2021/08/28 07:12:15;;;;;;;1.60;1.50;;;;;;;21.33;47.86;99249.97;4892818;29;20287;-83
2021/08/28 07:14:43;;;;;;;3.47;1.23;;;;;;;21.52;47.41;99243.34;4905570;29;20296;-82
2021/08/28 07:17:20;;;;;;;2.17;1.13;;;;;;;21.62;45.84;99241.56;4881631;29;20231;-83
2021/08/28 07:19:47;;;;;;;1.40;1.30;;;;;;;21.59;46.18;99237.53;4899852;29;20223;-83
2021/08/28 07:22:14;;;;;;;1.40;1.10;;;;;;;21.71;46.20;99248.72;4895532;29;20318;-84
2021/08/28 07:24:41;;;;;;;3.43;1.30;;;;;;;21.76;46.14;99240.47;4916232;29;20232;-81
2021/08/28 07:27:08;;;;;;;3.00;1.40;;;;;;;21.77;45.69;99235.81;4882462;29;20231;-84
2021/08/28 07:29:54;;;;;;;1.03;1.03;;;;;;;21.89;45.12;99233.38;4898431;29;20311;-84
2021/08/28 07:32:21;;;;;;;3.53;1.27;;;;;;;21.80;45.13;99224.28;4915496;29;20259;-82
2021/08/28 07:34:49;;;;;;;1.07;1.00;;;;;;;22.13;44.90;99228.56;4885005;29;20228;-82
2021/08/28 07:37:17;;;;;;;1.53;1.43;;;;;;;22.18;44.01;99216.72;4916889;29;20231;-83
2021/08/28 07:39:45;;;;;;;1.97;1.20;;;;;;;22.17;43.15;99215.09;4914803;29;20225;-85
2021/08/28 07:42:12;;;;;;;1.67;1.43;;;;;;;22.32;43.46;99220.25;4896269;29;20267;-85
2021/08/28 07:44:39;;;;;;;1.70;1.60;;;;;;;22.43;43.06;99213.47;4872916;29;20224;-81
2021/08/28 07:47:05;;;;;;;1.90;1.20;;;;;;;22.45;43.88;99202.22;4882908;29;20697;-84
2021/08/28 07:49:34;;;;;;;2.07;1.10;;;;;;;22.30;43.22;99215.09;4884602;29;20650;-83
2021/08/28 07:52:02;;;;;;;2.47;1.00;;;;;;;22.34;42.48;99221.56;4901344;29;20241;-83
2021/08/28 07:54:29;;;;;;;2.40;1.10;;;;;;;22.29;43.13;99209.94;4903886;29;20309;-82
2021/08/28 07:56:57;;;;;;;1.70;1.10;;;;;;;22.22;43.44;99221.28;4887047;29;20230;-82
2021/08/28 07:59:23;;;;;;;1.00;1.00;;;;;;;22.18;43.02;99214.81;4878334;29;20231;-82
2021/08/28 08:01:52;;;;;;;2.43;1.40;;;;;;;22.40;43.31;99233.16;4907088;29;20237;-84
2021/08/28 08:04:21;;;;;;;2.33;1.17;;;;;;;22.45;44.55;99215.84;4919782;29;20329;-84
2021/08/28 08:07:06;;;;;;;1.70;1.20;;;;;;;22.69;44.41;99230.06;4920391;29;20234;-82
2021/08/28 08:10:04;;;;;;;1.30;1.20;;;;;;;22.72;44.24;99235.72;4861730;29;20260;-82
2021/08/28 08:13:03;;;;;;;1.27;1.13;;;;;;;22.58;44.39;99221.31;4905567;29;20227;-82
2021/08/28 08:16:02;;;;;;;1.37;1.27;;;;;;;22.37;44.96;99222.88;4868786;29;20453;-84
2021/08/28 08:18:48;;;;;;;1.30;1.20;;;;;;;22.08;45.72;99231.41;4913309;29;20371;-83
2021/08/28 08:21:33;;;;;;;1.20;1.10;;;;;;;21.76;46.33;99229.56;4919709;29;20276;-83
2021/08/28 08:24:26;;;;;;;1.70;1.37;;;;;;;21.34;46.55;99233.34;4897966;29;20240;-82
2021/08/28 08:27:15;;;;;;;1.30;1.20;;;;;;;21.13;47.87;99242.97;4888643;29;20252;-85
2021/08/28 08:29:55;;;;;;;2.17;1.20;;;;;;;20.89;48.75;99240.34;4905089;29;20308;-85
2021/08/28 08:32:33;;;;;;;1.50;1.13;;;;;;;20.70;49.41;99244.16;4915789;29;20240;-83
2021/08/28 08:35:01;;;;;;;1.63;1.20;;;;;;;20.60;49.75;99245.13;4904188;29;20232;-85
2021/08/28 08:37:32;;;;;;;2.30;1.07;;;;;;;20.49;49.93;99241.72;4897872;29;20253;-85
2021/08/28 08:40:01;;;;;;;1.20;1.10;;;;;;;20.39;50.18;99244.59;4914657;29;20249;-83
2021/08/28 08:42:35;;;;;;;2.30;1.40;;;;;;;20.32;50.16;99243.34;4916420;29;20241;-83
2021/08/28 08:45:04;;;;;;;1.43;1.33;;;;;;;20.33;50.78;99248.50;4935037;29;20236;-84
2021/08/28 08:47:36;;;;;;;4.87;1.40;;;;;;;20.45;50.83;99231.72;4875796;29;20233;-80
2021/08/28 08:50:04;;;;;;;1.83;1.70;;;;;;;20.70;50.41;99241.44;4917972;29;20317;-83
2021/08/28 08:52:48;;;;;;;2.33;1.50;;;;;;;21.14;51.58;99241.06;4891436;29;20237;-84
2021/08/28 08:55:26;;;;;;;1.50;1.40;;;;;;;21.44;49.35;99244.06;4890178;29;20233;-84
2021/08/28 08:58:12;;;;;;;2.07;1.20;;;;;;;21.75;48.42;99251.66;4918273;29;20657;-84
2021/08/28 09:00:39;;;;;;;1.57;1.47;;;;;;;21.99;47.13;99238.69;4882300;29;20628;-83
2021/08/28 09:03:29;;;;;;;2.17;1.50;;;;;;;22.17;46.67;99248.66;4880610;29;20530;-81
2021/08/28 09:06:01;;;;;;;4.67;1.50;;;;;;;22.74;46.20;99249.09;4934050;29;20989;-84
2021/08/28 09:08:31;;;;;;;1.77;1.67;;;;;;;23.24;45.23;99238.84;4886806;29;20237;-84
2021/08/28 09:10:58;;;;;;;2.30;1.40;;;;;;;23.15;43.20;99254.38;4886862;29;20237;-85
2021/08/28 09:13:25;;;;;;;3.03;1.53;;;;;;;23.55;43.56;99242.44;4899096;29;20264;-83
2021/08/28 09:16:01;;;;;;;1.50;1.40;;;;;;;23.81;42.35;99247.22;4894383;29;20233;-83
2021/08/28 09:18:49;;;;;;;1.87;1.40;;;;;;;23.78;42.45;99239.66;4902755;29;20227;-82
2021/08/28 09:21:16;;;;;;;1.90;1.80;;;;;;;23.65;42.35;99233.97;4916415;29;20233;-82
2021/08/28 09:23:43;;;;;;;1.50;1.40;;;;;;;23.30;42.96;99225.84;4902105;29;20323;-83
2021/08/28 09:26:35;;;;;;;1.40;1.30;;;;;;;22.69;43.82;99252.72;4917293;29;20666;-83
2021/08/28 09:29:03;;;;;;;2.93;1.70;;;;;;;22.60;43.56;99249.09;4882750;29;20260;-81
2021/08/28 09:31:45;;;;;;;2.10;1.37;;;;;;;22.30;43.66;99245.09;4898378;29;20344;-83
2021/08/28 09:34:25;;;;;;;2.47;1.67;;;;;;;22.35;44.15;99255.09;4898988;29;20246;-84
2021/08/28 09:37:02;;;;;;;1.50;1.40;;;;;;;22.17;43.02;99245.13;4887560;29;20266;-84
2021/08/28 09:39:40;;;;;;;1.83;1.20;;;;;;;22.05;42.93;99253.03;4907407;29;20229;-81
2021/08/28 09:42:08;;;;;;;1.30;1.20;;;;;;;22.00;43.58;99239.47;4909633;29;20633;-81
2021/08/28 09:44:36;;;;;;;1.43;1.33;;;;;;;22.26;43.21;99241.38;4909566;29;20311;-84
2021/08/28 09:47:12;;;;;;;2.00;1.40;;;;;;;22.55;42.31;99246.47;4872172;29;20236;-85
2021/08/28 09:49:41;;;;;;;1.57;1.30;;;;;;;22.73;42.53;99239.28;4910099;29;20228;-84
2021/08/28 09:52:12;;;;;;;1.30;1.20;;;;;;;22.87;42.63;99234.56;4891407;29;20691;-85
2021/08/28 09:54:40;;;;;;;2.03;1.20;;;;;;;22.83;42.84;99239.84;4900420;29;20271;-83
2021/08/28 09:57:07;;;;;;;1.63;1.50;;;;;;;22.76;42.41;99235.94;4909207;29;20237;-84
2021/08/28 09:59:34;;;;;;;1.63;1.43;;;;;;;22.82;42.50;99234.69;4892798;29;20240;-84
2021/08/28 10:02:10;;;;;;;1.73;1.43;;;;;;;23.00;42.89;99235.66;4896916;29;20237;-81
2021/08/28 10:04:47;;;;;;;2.03;1.70;;;;;;;22.99;43.23;99240.31;4877231;29;20242;-85
2021/08/28 10:07:32;;;;;;;3.27;1.83;;;;;;;23.14;42.56;99242.63;4911728;29;20596;-84
2021/08/28 10:10:03;;;;;;;2.50;1.53;;;;;;;23.17;42.57;99241.22;4889714;29;20300;-83
2021/08/28 10:12:32;;;;;;;1.70;1.60;;;;;;;23.88;41.29;99242.91;4900200;29;20318;-86
2021/08/28 10:15:01;;;;;;;2.20;1.60;;;;;;;24.51;40.53;99245.19;4913484;29;20237;-83
2021/08/28 10:17:28;;;;;;;2.13;1.60;;;;;;;24.97;39.37;99230.88;4892996;29;20666;-84
2021/08/28 10:19:55;;;;;;;7.17;6.40;;;;;;;24.78;40.39;99233.09;4906366;29;20233;-82
2021/08/28 10:22:25;;;;;;;8.90;8.10;;;;;;;25.07;40.01;99218.78;4884307;29;20529;-84
2021/08/28 10:24:55;;;;;;;1.97;1.60;;;;;;;24.43;39.24;99231.50;4898603;29;20226;-83
2021/08/28 10:27:22;;;;;;;2.97;1.80;;;;;;;24.45;39.65;99221.81;4907460;29;20228;-85
2021/08/28 10:29:49;;;;;;;1.25;1.20;;;;;;;24.74;38.97;99215.72;4891676;29;20223;-83
2021/08/28 10:32:16;;;;;;;2.47;1.40;;;;;;;25.20;37.87;99209.56;4868415;29;20246;-86
2021/08/28 10:34:43;;;;;;;1.43;1.30;;;;;;;25.20;38.13;99220.53;4899525;29;20258;-81
2021/08/28 10:37:10;;;;;;;1.57;1.47;;;;;;;25.45;36.88;99216.13;4888930;29;20262;-84
2021/08/28 10:39:38;;;;;;;3.80;1.55;;;;;;;25.20;36.63;99228.75;4907266;29;20226;-86
2021/08/28 10:42:06;;;;;;;2.42;1.80;;;;;;;25.13;37.17;99230.38;4896170;29;20281;-85
2021/08/28 10:44:34;;;;;;;1.60;1.50;;;;;;;25.58;37.08;99225.28;4904521;29;20254;-87
2021/08/28 10:47:10;;;;;;;1.20;1.10;;;;;;;25.78;36.37;99213.59;4883934;29;20257;-87
2021/08/28 10:49:46;;;;;;;1.60;1.50;;;;;;;26.32;35.85;99227.56;4884641;29;20235;-87
2021/08/28 10:52:17;;;;;;;2.97;1.40;;;;;;;26.77;34.50;99220.25;4891038;29;20234;-87
2021/08/28 10:55:04;;;;;;;1.45;1.35;;;;;;;26.67;34.96;99220.66;4907749;29;20232;-86
2021/08/28 10:57:31;;;;;;;3.05;1.30;;;;;;;25.99;34.25;99219.94;4900855;29;20273;-85
2021/08/28 11:00:10;;;;;;;1.75;1.30;;;;;;;26.07;34.84;99219.13;4886884;29;20315;-86
2021/08/28 11:02:58;;;;;;;3.35;1.70;;;;;;;26.49;33.75;99219.19;4898568;29;20226;-86
2021/08/28 11:05:29;;;;;;;22.42;17.75;;;;;;;26.74;33.14;99223.66;4902478;29;20234;-87
2021/08/28 11:08:15;;;;;;;8.40;7.15;;;;;;;27.29;32.50;99220.63;4916441;29;20226;-87
2021/08/28 11:10:43;;;;;;;2.13;1.60;;;;;;;26.83;32.48;99215.38;4899906;29;20679;-86
2021/08/28 11:13:10;;;;;;;1.20;1.10;;;;;;;26.14;32.93;99208.41;4883508;29;20290;-87
2021/08/28 11:15:36;;;;;;;1.48;1.25;;;;;;;26.54;33.45;99219.00;4899002;29;20237;-86
2021/08/28 11:18:06;;;;;;;2.05;1.35;;;;;;;26.70;32.48;99222.72;4899435;29;20302;-87
2021/08/28 11:20:41;;;;;;;1.67;1.50;;;;;;;26.60;32.57;99220.38;4898580;29;20292;-85
2021/08/28 11:23:19;;;;;;;1.85;1.20;;;;;;;26.73;31.08;99211.91;4900249;29;20263;-87
2021/08/28 11:25:58;;;;;;;1.88;1.20;;;;;;;26.69;31.40;99210.94;4902822;29;20236;-86
2021/08/28 11:28:42;;;;;;;1.67;1.20;;;;;;;26.52;31.36;99210.28;4887046;29;20231;-87
2021/08/28 11:31:10;;;;;;;1.90;1.10;;;;;;;25.90;32.64;99208.19;4902803;29;20242;-86
2021/08/28 11:33:37;;;;;;;1.02;1.02;;;;;;;25.85;31.83;99195.47;4902772;29;20234;-86
2021/08/28 11:36:19;;;;;;;2.53;1.50;;;;;;;26.07;32.15;99191.66;4885276;29;20879;-85
2021/08/28 11:38:51;;;;;;;1.67;1.33;;;;;;;25.76;33.32;99197.47;4886215;29;20233;-86
2021/08/28 11:41:24;;;;;;;1.83;1.20;;;;;;;25.70;32.68;99184.28;4902422;29;20244;-85
2021/08/28 11:43:53;;;;;;;1.92;1.33;;;;;;;26.17;31.86;99184.97;4886930;29;20235;-86
2021/08/28 11:46:28;;;;;;;1.50;1.40;;;;;;;26.46;31.46;99182.19;4886532;29;20239;-86
2021/08/28 11:48:56;;;;;;;2.13;1.38;;;;;;;26.26;31.93;99185.75;4894795;29;20235;-87
2021/08/28 11:51:25;;;;;;;1.45;1.13;;;;;;;26.26;31.49;99180.25;4902225;29;20293;-86
2021/08/28 11:53:58;;;;;;;1.30;1.20;;;;;;;26.51;31.96;99187.50;4918219;29;20246;-87
2021/08/28 11:56:30;;;;;;;3.25;1.70;;;;;;;26.77;31.52;99168.06;4905169;29;20230;-88
2021/08/28 11:59:02;;;;;;;1.42;1.20;;;;;;;27.39;31.51;99194.63;4907014;29;20717;-88
2021/08/28 12:01:36;;;;;;;1.50;1.40;;;;;;;27.67;30.90;99192.81;4887360;29;20240;-87
2021/08/28 12:04:06;;;;;;;1.73;1.20;;;;;;;27.88;30.53;99196.28;4918506;29;20229;-86